Weather History for Cavalier, ND

Change the Weather History Date:

Saturday, May 10, 2014

  Actual Average (KGAF) Record (KGAF)
Temperature  
Mean Temperature 52 °F -  
Max Temperature 66 °F 68 °F 93 °F (1987)
Min Temperature 37 °F 42 °F 25 °F (1981)
Degree Days  
Heating Degree Days 14    
Growing Degree Days 2 (Base 50)    
Moisture  
Dew Point 34 °F    
Average Humidity 48    
Maximum Humidity 93    
Minimum Humidity 28    
Precipitation  
Precipitation 0.00 in - - ()
Sea Level Pressure  
Sea Level Pressure 29.74 in    
Wind  
Wind Speed 7 mph (South)    
Max Wind Speed 17 mph    
Max Gust Speed 26 mph    
Visibility 10 miles    
Events      
Averages and records for this station are not official NWS values.
T = Trace of Precipitation, MM = Missing Value Source: NWS Daily Summary

Daily Weather History Graph

Daily Weather History Graph

Search for Another Location

Airport:

Trip Planner

Search our weather history database for the weather conditions in past years. The results will help you decide how hot, cold, wet, or windy it might be!

Date:

Astronomy

May. 10, 2014 Rise Set
Actual Time 5:55 AM CDT 8:58 PM CDT
Civil Twilight 5:18 AM CDT 9:35 PM CDT
Nautical Twilight 4:31 AM CDT 10:24 PM CDT
Astronomical Twilight 3:31 AM CDT 11:24 PM CDT
Moon 4:35 PM CDT (5/10) 3:52 AM CDT (5/10)
Length of Visible Light 16h 17m
Length of Day
15h 02m
Waxing Gibbous, 82% of the Moon is Illuminated
May 10
Waxing Gibbous
May 14
Full
May 21
Last Quarter
May 28
New
Jun 5
First Quarter

Hourly Weather History & Observations

Time (CDT) Temp. Windchill Dew Point Humidity Pressure Visibility Wind Dir Wind Speed Gust Speed Precip Events Conditions
12:15 AM 44.6 °F 41.4 °F 35.6 °F 71% 29.73 in 10.0 mi SSW 5.8 mph - N/A   Clear
12:35 AM 41.0 °F 39.0 °F 35.6 °F 81% 29.73 in 10.0 mi SSW 3.5 mph - N/A   Clear
12:55 AM 41.0 °F 39.0 °F 35.6 °F 81% 29.72 in 10.0 mi SSW 3.5 mph - N/A   Clear
1:15 AM 39.2 °F 35.9 °F 33.8 °F 81% 29.72 in 10.0 mi South 4.6 mph - N/A   Clear
1:35 AM 39.2 °F 35.9 °F 33.8 °F 81% 29.72 in 10.0 mi South 4.6 mph - N/A   Clear
1:55 AM 39.2 °F - 33.8 °F 81% 29.72 in 10.0 mi Calm Calm - N/A   Clear
2:15 AM 37.4 °F 34.9 °F 35.6 °F 93% 29.72 in 10.0 mi South 3.5 mph - N/A   Clear
2:35 AM 37.4 °F 33.8 °F 33.8 °F 87% 29.72 in 10.0 mi SSW 4.6 mph - N/A   Clear
2:55 AM 37.4 °F 33.8 °F 32.0 °F 81% 29.72 in 10.0 mi SSW 4.6 mph - N/A   Clear
3:15 AM 39.2 °F 35.9 °F 32.0 °F 75% 29.72 in 10.0 mi SSW 4.6 mph - N/A   Clear
3:35 AM 39.2 °F 35.0 °F 32.0 °F 75% 29.71 in 10.0 mi South 5.8 mph - N/A   Clear
3:55 AM 37.4 °F 32.8 °F 32.0 °F 81% 29.72 in 10.0 mi SSW 5.8 mph - N/A   Clear
4:15 AM 39.2 °F 34.2 °F 30.2 °F 70% 29.72 in 10.0 mi SSW 6.9 mph - N/A   Clear
4:55 AM 39.2 °F 34.2 °F 28.4 °F 65% 29.72 in 10.0 mi SW 6.9 mph - N/A   Clear
5:15 AM 39.2 °F 35.0 °F 28.4 °F 65% 29.72 in 10.0 mi SW 5.8 mph - N/A   Clear
5:35 AM 39.2 °F 35.0 °F 30.2 °F 70% 29.73 in 10.0 mi SSW 5.8 mph - N/A   Clear
5:55 AM 37.4 °F 32.8 °F 28.4 °F 70% 29.73 in 10.0 mi SSW 5.8 mph - N/A   Clear
6:15 AM 39.2 °F 35.0 °F 28.4 °F 65% 29.74 in 10.0 mi SSW 5.8 mph - N/A   Clear
6:35 AM 39.2 °F 35.0 °F 28.4 °F 65% 29.74 in 10.0 mi SW 5.8 mph - N/A   Clear
6:55 AM 41.0 °F 37.1 °F 30.2 °F 65% 29.74 in 10.0 mi SW 5.8 mph - N/A   Clear
7:15 AM 44.6 °F 40.7 °F 32.0 °F 61% 29.75 in 10.0 mi SW 6.9 mph - N/A   Clear
7:35 AM 46.4 °F 42.9 °F 32.0 °F 57% 29.75 in 10.0 mi SSW 6.9 mph - N/A   Clear
7:55 AM 48.2 °F - 32.0 °F 54% 29.75 in 10.0 mi SSW 8.1 mph - N/A   Clear
8:15 AM 50.0 °F - 32.0 °F 50% 29.76 in 10.0 mi SW 8.1 mph - N/A   Clear
8:35 AM 53.6 °F - 32.0 °F 44% 29.76 in 10.0 mi SW 9.2 mph - N/A   Clear
8:55 AM 55.4 °F - 32.0 °F 41% 29.76 in 10.0 mi SW 8.1 mph - N/A   Clear
9:15 AM 57.2 °F - 32.0 °F 38% 29.76 in 10.0 mi SW 11.5 mph - N/A   Clear
9:35 AM 59.0 °F - 32.0 °F 36% 29.75 in 10.0 mi SW 10.4 mph - N/A   Clear
9:55 AM 59.0 °F - 32.0 °F 36% 29.75 in 10.0 mi SW 10.4 mph - N/A   Clear
10:15 AM 60.8 °F - 32.0 °F 34% 29.75 in 10.0 mi SSW 11.5 mph - N/A   Clear
10:35 AM 60.8 °F - 32.0 °F 34% 29.75 in 10.0 mi South 10.4 mph - N/A   Clear
10:55 AM 62.6 °F - 32.0 °F 32% 29.75 in 10.0 mi South 16.1 mph 19.6 mph N/A   Clear
11:15 AM 62.6 °F - 32.0 °F 32% 29.76 in 10.0 mi South 15.0 mph - N/A   Clear
11:35 AM 64.4 °F - 32.0 °F 30% 29.75 in 10.0 mi SSW 11.5 mph 17.3 mph N/A   Clear
11:55 AM 62.6 °F - 32.0 °F 32% 29.75 in 10.0 mi South 9.2 mph - N/A   Clear
12:15 PM 64.4 °F - 32.0 °F 30% 29.75 in 10.0 mi South 13.8 mph 18.4 mph N/A   Clear
12:35 PM 64.4 °F - 33.8 °F 32% 29.74 in 10.0 mi South 11.5 mph 16.1 mph N/A   Clear
12:55 PM 64.4 °F - 32.0 °F 30% 29.74 in 10.0 mi South 11.5 mph - N/A   Clear
1:15 PM 64.4 °F - 35.6 °F 34% 29.74 in 10.0 mi South 11.5 mph 16.1 mph N/A   Clear
1:35 PM 64.4 °F - 35.6 °F 34% 29.74 in 10.0 mi SSW 10.4 mph 16.1 mph N/A   Clear
1:55 PM 64.4 °F - 33.8 °F 32% 29.73 in 10.0 mi SSE 10.4 mph 16.1 mph N/A   Clear
2:15 PM 66.2 °F - 35.6 °F 32% 29.74 in 10.0 mi South 11.5 mph 20.7 mph N/A   Clear
2:35 PM 66.2 °F - 35.6 °F 32% 29.73 in 10.0 mi South 11.5 mph 16.1 mph N/A   Clear
2:55 PM 66.2 °F - 33.8 °F 30% 29.73 in 10.0 mi SSE 10.4 mph - N/A   Clear
3:15 PM 64.4 °F - 33.8 °F 32% 29.73 in 10.0 mi South 8.1 mph - N/A   Clear
3:55 PM 66.2 °F - 35.6 °F 32% 29.72 in 10.0 mi SSE 11.5 mph 18.4 mph N/A   Clear
4:15 PM 66.2 °F - 35.6 °F 32% 29.72 in 10.0 mi SSE 9.2 mph - N/A   Clear
4:35 PM 66.2 °F - 32.0 °F 28% 29.72 in 10.0 mi SSE 8.1 mph - N/A   Clear
4:55 PM 66.2 °F - 32.0 °F 28% 29.72 in 10.0 mi SSE 10.4 mph - N/A   Clear
5:15 PM 66.2 °F - 32.0 °F 28% 29.72 in 10.0 mi SE 6.9 mph - N/A   Clear
5:35 PM 66.2 °F - 32.0 °F 28% 29.72 in 10.0 mi SE 5.8 mph - N/A   Clear
5:55 PM 66.2 °F - 32.0 °F 28% 29.72 in 10.0 mi ESE 4.6 mph - N/A   Clear
6:15 PM 64.4 °F - 37.4 °F 37% 29.72 in 9.0 mi South 4.6 mph - N/A   Clear
6:35 PM 66.2 °F - 32.0 °F 28% 29.72 in 10.0 mi Calm Calm - N/A   Clear
6:55 PM 66.2 °F - 33.8 °F 30% 29.72 in 10.0 mi Calm Calm - N/A   Clear
7:15 PM 64.4 °F - 37.4 °F 37% 29.72 in 10.0 mi NNE 3.5 mph - N/A   Clear
7:35 PM 64.4 °F - 37.4 °F 37% 29.72 in 7.0 mi North 4.6 mph - N/A   Clear
7:55 PM 62.6 °F - 37.4 °F 39% 29.72 in 7.0 mi NNE 4.6 mph - N/A   Clear
8:15 PM 62.6 °F - 39.2 °F 42% 29.72 in 10.0 mi NNE 4.6 mph - N/A   Partly Cloudy
8:35 PM 62.6 °F - 35.6 °F 37% 29.72 in 10.0 mi NNE 8.1 mph - N/A   Partly Cloudy
8:55 PM 62.6 °F - 35.6 °F 37% 29.72 in 10.0 mi NNE 6.9 mph - N/A   Partly Cloudy
9:15 PM 62.6 °F - 35.6 °F 37% 29.73 in 10.0 mi NNE 5.8 mph - N/A   Unknown
9:35 PM 62.6 °F - 35.6 °F 37% 29.74 in 10.0 mi NE 4.6 mph - N/A   Clear
9:55 PM 60.8 °F - 37.4 °F 42% 29.76 in 10.0 mi ESE 6.9 mph - N/A   Partly Cloudy
10:15 PM 59.0 °F - 39.2 °F 48% 29.77 in 10.0 mi East 3.5 mph - N/A   Scattered Clouds
10:35 PM 60.8 °F - 37.4 °F 42% 29.78 in 7.0 mi SSE 5.8 mph 20.7 mph N/A   Mostly Cloudy
10:55 PM 60.8 °F - 37.4 °F 42% 29.78 in 10.0 mi SE 6.9 mph - N/A   Mostly Cloudy
11:15 PM 57.2 °F - 41.0 °F 55% 29.79 in 7.0 mi ESE 15.0 mph 26.5 mph N/A   Mostly Cloudy
11:35 PM 57.2 °F - 39.2 °F 51% 29.78 in 10.0 mi ENE 17.3 mph 20.7 mph N/A   Overcast
11:55 PM 59.0 °F - 39.2 °F 48% 29.77 in 10.0 mi ENE 13.8 mph - N/A   Overcast